sensor_id;sensor_type;location;lat;lon;timestamp;pressure;altitude;pressure_sealevel;temperature;humidity
7586;BME280;12459;42.646;23.292;2023-02-28T00:03:02;94180.94;;;8.06;100.00
7586;BME280;12459;42.646;23.292;2023-02-28T00:18:04;94010.53;;;6.84;100.00
7586;BME280;12459;42.646;23.292;2023-02-28T00:33:06;94106.78;;;7.27;100.00
7586;BME280;12459;42.646;23.292;2023-02-28T00:48:08;94173.75;;;8.17;100.00
7586;BME280;12459;42.646;23.292;2023-02-28T01:03:09;94054.91;;;6.69;100.00
7586;BME280;12459;42.646;23.292;2023-02-28T01:18:11;94041.44;;;6.55;100.00
7586;BME280;12459;42.646;23.292;2023-02-28T01:33:13;94077.03;;;6.77;100.00
7586;BME280;12459;42.646;23.292;2023-02-28T01:48:15;94157.19;;;7.39;100.00
7586;BME280;12459;42.646;23.292;2023-02-28T02:03:18;94197.31;;;7.53;100.00
7586;BME280;12459;42.646;23.292;2023-02-28T02:18:43;94172.94;;;7.55;100.00
7586;BME280;12459;42.646;23.292;2023-02-28T02:49:08;93998.22;;;6.28;100.00
7586;BME280;12459;42.646;23.292;2023-02-28T03:04:16;94041.56;;;6.29;100.00
7586;BME280;12459;42.646;23.292;2023-02-28T03:34:49;94196.31;;;6.94;100.00
7586;BME280;12459;42.646;23.292;2023-02-28T03:50:00;94123.41;;;5.83;100.00
7586;BME280;12459;42.646;23.292;2023-02-28T04:05:04;94165.34;;;6.19;100.00
7586;BME280;12459;42.646;23.292;2023-02-28T04:20:07;94040.72;;;5.91;100.00
7586;BME280;12459;42.646;23.292;2023-02-28T04:35:11;94073.69;;;5.87;100.00
7586;BME280;12459;42.646;23.292;2023-02-28T04:50:12;94021.59;;;5.52;100.00
7586;BME280;12459;42.646;23.292;2023-02-28T05:05:14;94125.75;;;5.88;100.00
7586;BME280;12459;42.646;23.292;2023-02-28T05:20:19;94323.38;;;6.90;100.00
7586;BME280;12459;42.646;23.292;2023-02-28T05:35:22;94029.66;;;5.33;100.00
7586;BME280;12459;42.646;23.292;2023-02-28T05:50:24;93979.69;;;4.66;100.00
7586;BME280;12459;42.646;23.292;2023-02-28T06:05:26;94369.88;;;7.23;100.00
7586;BME280;12459;42.646;23.292;2023-02-28T06:20:27;94305.63;;;7.31;100.00
7586;BME280;12459;42.646;23.292;2023-02-28T06:35:32;94156.34;;;6.27;100.00
7586;BME280;12459;42.646;23.292;2023-02-28T06:50:33;94110.00;;;6.02;100.00
7586;BME280;12459;42.646;23.292;2023-02-28T07:05:36;94178.31;;;6.51;100.00
7586;BME280;12459;42.646;23.292;2023-02-28T07:20:39;94293.66;;;7.89;100.00
7586;BME280;12459;42.646;23.292;2023-02-28T07:35:41;94263.81;;;7.39;100.00
7586;BME280;12459;42.646;23.292;2023-02-28T07:50:43;94215.66;;;7.25;100.00
7586;BME280;12459;42.646;23.292;2023-02-28T08:05:44;94219.56;;;7.31;100.00
7586;BME280;12459;42.646;23.292;2023-02-28T08:20:46;94015.00;;;6.02;100.00
7586;BME280;12459;42.646;23.292;2023-02-28T08:35:48;94243.63;;;7.38;100.00
7586;BME280;12459;42.646;23.292;2023-02-28T08:51:02;94222.78;;;7.47;100.00
7586;BME280;12459;42.646;23.292;2023-02-28T09:06:09;94314.03;;;8.11;100.00
7586;BME280;12459;42.646;23.292;2023-02-28T09:21:14;94241.38;;;7.84;100.00
7586;BME280;12459;42.646;23.292;2023-02-28T09:36:17;94340.69;;;9.07;100.00
7586;BME280;12459;42.646;23.292;2023-02-28T09:51:46;94326.31;;;9.36;100.00
7586;BME280;12459;42.646;23.292;2023-02-28T10:06:52;94320.63;;;9.38;100.00
7586;BME280;12459;42.646;23.292;2023-02-28T10:22:00;94175.31;;;8.98;100.00
7586;BME280;12459;42.646;23.292;2023-02-28T10:37:03;94281.38;;;9.99;100.00
7586;BME280;12459;42.646;23.292;2023-02-28T10:52:09;93902.44;;;7.45;100.00
7586;BME280;12459;42.646;23.292;2023-02-28T11:07:22;94150.56;;;10.11;100.00
7586;BME280;12459;42.646;23.292;2023-02-28T11:22:28;94117.66;;;10.14;100.00
7586;BME280;12459;42.646;23.292;2023-02-28T11:37:31;94051.56;;;9.90;100.00
7586;BME280;12459;42.646;23.292;2023-02-28T11:52:53;94177.06;;;11.14;100.00
7586;BME280;12459;42.646;23.292;2023-02-28T12:38:44;94076.97;;;10.62;100.00
7586;BME280;12459;42.646;23.292;2023-02-28T13:09:12;94191.88;;;11.40;100.00
7586;BME280;12459;42.646;23.292;2023-02-28T13:39:57;94143.47;;;10.88;100.00
7586;BME280;12459;42.646;23.292;2023-02-28T14:10:34;94124.13;;;11.22;100.00
7586;BME280;12459;42.646;23.292;2023-02-28T14:26:08;94123.72;;;11.27;100.00
7586;BME280;12459;42.646;23.292;2023-02-28T14:41:20;93766.53;;;8.38;100.00
7586;BME280;12459;42.646;23.292;2023-02-28T14:56:36;94113.44;;;11.18;100.00
7586;BME280;12459;42.646;23.292;2023-02-28T15:11:38;94115.84;;;10.99;100.00
7586;BME280;12459;42.646;23.292;2023-02-28T15:26:53;93922.84;;;9.35;100.00
7586;BME280;12459;42.646;23.292;2023-02-28T15:42:20;94082.47;;;10.12;100.00
7586;BME280;12459;42.646;23.292;2023-02-28T15:57:25;94095.16;;;9.26;100.00
7586;BME280;12459;42.646;23.292;2023-02-28T16:12:30;94106.22;;;9.18;100.00
7586;BME280;12459;42.646;23.292;2023-02-28T16:27:36;94079.09;;;9.12;100.00
7586;BME280;12459;42.646;23.292;2023-02-28T16:42:38;94228.97;;;9.73;100.00
7586;BME280;12459;42.646;23.292;2023-02-28T16:57:40;94001.56;;;7.61;100.00
7586;BME280;12459;42.646;23.292;2023-02-28T17:12:42;94020.34;;;7.86;100.00
7586;BME280;12459;42.646;23.292;2023-02-28T17:27:45;94083.72;;;8.07;100.00
7586;BME280;12459;42.646;23.292;2023-02-28T17:42:47;94250.38;;;8.61;100.00
7586;BME280;12459;42.646;23.292;2023-02-28T17:57:49;94061.75;;;7.62;100.00
7586;BME280;12459;42.646;23.292;2023-02-28T18:12:51;94186.66;;;8.08;100.00
7586;BME280;12459;42.646;23.292;2023-02-28T18:27:53;93895.72;;;5.71;100.00
7586;BME280;12459;42.646;23.292;2023-02-28T18:42:58;94028.50;;;6.94;100.00
7586;BME280;12459;42.646;23.292;2023-02-28T18:58:00;94115.00;;;7.08;100.00
7586;BME280;12459;42.646;23.292;2023-02-28T19:13:02;94095.84;;;6.95;100.00
7586;BME280;12459;42.646;23.292;2023-02-28T19:28:05;94183.75;;;7.73;100.00
7586;BME280;12459;42.646;23.292;2023-02-28T19:43:06;94181.34;;;7.57;100.00
7586;BME280;12459;42.646;23.292;2023-02-28T19:58:09;94029.56;;;6.86;100.00
7586;BME280;12459;42.646;23.292;2023-02-28T20:13:11;93991.44;;;6.01;100.00
7586;BME280;12459;42.646;23.292;2023-02-28T20:28:12;94155.81;;;7.56;100.00
7586;BME280;12459;42.646;23.292;2023-02-28T20:43:14;94026.69;;;5.94;100.00
7586;BME280;12459;42.646;23.292;2023-02-28T20:58:16;93880.47;;;5.64;100.00
7586;BME280;12459;42.646;23.292;2023-02-28T21:13:18;93957.25;;;6.03;100.00
7586;BME280;12459;42.646;23.292;2023-02-28T21:28:19;93981.91;;;6.33;100.00
7586;BME280;12459;42.646;23.292;2023-02-28T21:43:21;94006.19;;;6.28;100.00
7586;BME280;12459;42.646;23.292;2023-02-28T21:58:23;94129.09;;;7.49;100.00
7586;BME280;12459;42.646;23.292;2023-02-28T22:13:25;94156.56;;;7.56;100.00
7586;BME280;12459;42.646;23.292;2023-02-28T22:28:27;94188.81;;;7.88;100.00
7586;BME280;12459;42.646;23.292;2023-02-28T22:43:31;94245.84;;;8.17;100.00
7586;BME280;12459;42.646;23.292;2023-02-28T22:58:33;94150.28;;;7.34;100.00
7586;BME280;12459;42.646;23.292;2023-02-28T23:13:35;94095.75;;;6.84;100.00
7586;BME280;12459;42.646;23.292;2023-02-28T23:28:37;94042.03;;;6.75;100.00
7586;BME280;12459;42.646;23.292;2023-02-28T23:43:39;94002.16;;;6.42;100.00
7586;BME280;12459;42.646;23.292;2023-02-28T23:58:42;93927.31;;;5.76;100.00
